Time;durP1;ratioP1;P1;durP2;ratioP2;P2;SDS_P1;SDS_P2;PMS_P1;PMS_P2;Temp;Humidity;BMP_temperature;BMP_pressure;BME280_temperature;BME280_humidity;BME280_pressure;Samples;Min_cycle;Max_cycle;Signal;HPM_P1;HPM_P2
2024/03/23 00:02:24;;;;;;;9.77;4.28;;;8.10;99.90;;;;;;5036258;28;20056;-53
2024/03/23 00:04:50;;;;;;;10.15;5.05;;;8.10;99.90;;;;;;5031227;28;20430;-55
2024/03/23 00:07:17;;;;;;;17.42;4.75;;;8.00;99.90;;;;;;5038610;28;20032;-55
2024/03/23 00:09:43;;;;;;;10.75;4.55;;;7.90;99.90;;;;;;5039395;28;20033;-55
2024/03/23 00:12:10;;;;;;;15.80;5.18;;;7.80;99.90;;;;;;5038085;28;20430;-54
2024/03/23 00:14:37;;;;;;;9.75;4.75;;;7.80;99.90;;;;;;5040117;28;20030;-53
2024/03/23 00:17:04;;;;;;;12.32;5.55;;;7.80;99.90;;;;;;5039906;28;20032;-52
2024/03/23 00:19:30;;;;;;;12.00;5.18;;;7.80;99.90;;;;;;5032820;28;20414;-54
2024/03/23 00:21:57;;;;;;;11.68;5.18;;;7.70;99.90;;;;;;5035856;28;20033;-51
2024/03/23 00:24:23;;;;;;;14.75;5.05;;;7.70;99.90;;;;;;5035505;28;20037;-53
2024/03/23 00:26:50;;;;;;;15.00;6.75;;;7.70;99.90;;;;;;5035988;28;20033;-56
2024/03/23 00:29:16;;;;;;;14.43;6.90;;;7.70;99.90;;;;;;5039240;28;20056;-56
2024/03/23 00:31:43;;;;;;;10.23;5.50;;;7.60;99.90;;;;;;5034990;28;20043;-52
2024/03/23 00:34:09;;;;;;;13.13;6.30;;;7.60;99.90;;;;;;5032653;28;20072;-54
2024/03/23 00:36:36;;;;;;;11.98;5.38;;;7.60;99.90;;;;;;5037769;28;20044;-52
2024/03/23 00:39:02;;;;;;;11.98;5.88;;;7.60;99.90;;;;;;5037137;28;20036;-53
2024/03/23 00:41:29;;;;;;;13.82;5.32;;;7.60;99.90;;;;;;5037465;28;20091;-55
2024/03/23 00:43:55;;;;;;;10.23;5.55;;;7.50;99.90;;;;;;5047838;22;20032;-55
2024/03/23 00:46:22;;;;;;;16.48;5.18;;;7.50;99.90;;;;;;5032847;28;20096;-55
2024/03/23 00:48:48;;;;;;;13.02;4.93;;;7.50;99.90;;;;;;5024139;28;20836;-56
2024/03/23 00:51:15;;;;;;;18.08;6.00;;;7.50;99.90;;;;;;5011165;28;20112;-56
2024/03/23 00:53:41;;;;;;;22.05;6.30;;;7.50;99.90;;;;;;5038119;28;20029;-55
2024/03/23 00:56:06;;;;;;;14.00;4.60;;;7.50;99.90;;;;;;5025183;28;20032;-56
2024/03/23 00:58:32;;;;;;;11.82;5.38;;;7.40;99.90;;;;;;5028750;28;20686;-57
2024/03/23 01:00:57;;;;;;;13.52;5.22;;;7.40;99.90;;;;;;5029820;28;20518;-56
2024/03/23 01:03:23;;;;;;;14.68;5.45;;;7.40;99.90;;;;;;5030208;28;20659;-57
2024/03/23 01:05:48;;;;;;;16.00;6.10;;;7.40;99.90;;;;;;5029868;28;20026;-57
2024/03/23 01:08:14;;;;;;;17.17;6.22;;;7.40;99.90;;;;;;5029936;28;20425;-56
2024/03/23 01:10:40;;;;;;;15.52;5.22;;;7.50;99.90;;;;;;5030052;28;20036;-56
2024/03/23 01:13:05;;;;;;;13.45;5.78;;;7.50;99.90;;;;;;5029715;28;20022;-56
2024/03/23 01:15:31;;;;;;;12.00;5.95;;;7.50;99.90;;;;;;5028935;28;20021;-57
2024/03/23 01:17:57;;;;;;;18.83;6.43;;;7.50;99.90;;;;;;5029775;28;20029;-54
2024/03/23 01:20:23;;;;;;;21.05;7.25;;;7.40;99.90;;;;;;5025784;28;20025;-58
2024/03/23 01:22:48;;;;;;;17.00;6.53;;;7.50;99.90;;;;;;5028509;28;20033;-57
2024/03/23 01:25:14;;;;;;;20.80;6.30;;;7.50;99.90;;;;;;5026116;28;20042;-57
2024/03/23 01:27:39;;;;;;;17.75;6.70;;;7.40;99.90;;;;;;5032145;28;20056;-57
2024/03/23 01:30:06;;;;;;;20.25;6.57;;;7.40;99.90;;;;;;5026189;28;20052;-57
2024/03/23 01:32:31;;;;;;;24.60;7.82;;;7.40;99.90;;;;;;5026247;28;20036;-56
2024/03/23 01:34:57;;;;;;;14.05;6.55;;;7.40;99.90;;;;;;5025451;28;20022;-57
2024/03/23 01:37:22;;;;;;;22.65;6.68;;;7.40;99.90;;;;;;5027124;28;20021;-57
2024/03/23 01:39:48;;;;;;;17.00;6.15;;;7.40;99.90;;;;;;5032573;28;20021;-56
2024/03/23 01:42:13;;;;;;;13.75;6.53;;;7.40;99.90;;;;;;5032239;28;20094;-56
2024/03/23 01:44:39;;;;;;;14.88;6.70;;;7.30;99.90;;;;;;5032815;28;20766;-56
2024/03/23 01:47:06;;;;;;;23.98;6.60;;;7.40;99.90;;;;;;5032178;28;20507;-56
2024/03/23 01:49:33;;;;;;;14.88;6.35;;;7.40;99.90;;;;;;5032104;28;20746;-57
2024/03/23 01:51:59;;;;;;;14.93;6.50;;;7.40;99.90;;;;;;5009899;28;20509;-54
2024/03/23 01:54:25;;;;;;;20.17;7.18;;;7.40;99.90;;;;;;5027998;28;20022;-56
2024/03/23 01:56:51;;;;;;;26.30;7.45;;;7.40;99.90;;;;;;5031767;28;20216;-57
2024/03/23 01:59:16;;;;;;;10.98;5.20;;;7.30;99.90;;;;;;5025962;28;20013;-57
2024/03/23 02:01:42;;;;;;;14.65;5.85;;;7.30;99.90;;;;;;5030355;28;20133;-57
2024/03/23 02:04:09;;;;;;;17.35;5.57;;;7.30;99.90;;;;;;5029846;28;20030;-55
2024/03/23 02:06:35;;;;;;;10.93;5.18;;;7.30;99.90;;;;;;5029445;28;20029;-56
2024/03/23 02:09:00;;;;;;;20.25;5.90;;;7.30;99.90;;;;;;5025987;28;20021;-56
2024/03/23 02:11:26;;;;;;;11.82;4.47;;;7.30;99.90;;;;;;5032697;28;20029;-56
2024/03/23 02:13:51;;;;;;;14.75;4.80;;;7.30;99.90;;;;;;5028607;28;20052;-57
2024/03/23 02:16:17;;;;;;;12.90;4.80;;;7.20;99.90;;;;;;5030604;28;20018;-56
2024/03/23 02:18:43;;;;;;;10.07;4.10;;;7.20;99.90;;;;;;5033763;28;20064;-56
2024/03/23 02:21:08;;;;;;;7.63;4.60;;;7.10;99.90;;;;;;5028748;28;20090;-56
2024/03/23 02:23:34;;;;;;;11.10;4.20;;;7.10;99.90;;;;;;5031404;28;20446;-54
2024/03/23 02:25:59;;;;;;;10.73;3.65;;;7.10;99.90;;;;;;5031323;28;20038;-55
2024/03/23 02:28:25;;;;;;;10.65;3.50;;;7.00;99.90;;;;;;5030694;28;20507;-55
2024/03/23 02:30:51;;;;;;;13.20;4.47;;;7.00;99.90;;;;;;5029756;28;20060;-54
2024/03/23 02:33:17;;;;;;;10.10;3.70;;;7.00;99.90;;;;;;5029958;28;20037;-57
2024/03/23 02:35:44;;;;;;;21.17;5.47;;;7.00;99.90;;;;;;5025201;28;20076;-58
2024/03/23 02:38:09;;;;;;;18.95;5.07;;;6.90;99.90;;;;;;5031455;28;20490;-53
2024/03/23 02:40:36;;;;;;;15.15;3.63;;;6.90;99.90;;;;;;5030172;28;20029;-56
2024/03/23 02:43:02;;;;;;;10.70;3.10;;;6.80;99.90;;;;;;5023624;28;20094;-53
2024/03/23 02:45:28;;;;;;;4.55;2.30;;;6.80;99.90;;;;;;5030213;28;20041;-56
2024/03/23 02:47:54;;;;;;;7.90;2.20;;;6.60;99.90;;;;;;5030848;28;20030;-57
2024/03/23 02:50:20;;;;;;;6.35;1.55;;;6.50;99.90;;;;;;5013539;28;20057;-56
2024/03/23 02:52:46;;;;;;;5.45;1.80;;;6.40;99.90;;;;;;5029301;28;20033;-54
2024/03/23 02:55:12;;;;;;;4.18;1.67;;;6.30;99.90;;;;;;5030628;28;20137;-58
2024/03/23 02:57:37;;;;;;;3.90;1.50;;;6.30;99.90;;;;;;5028743;28;20121;-56
2024/03/23 03:00:03;;;;;;;8.20;1.70;;;6.20;99.90;;;;;;5030715;28;20029;-54
2024/03/23 03:02:29;;;;;;;5.55;1.88;;;6.20;99.90;;;;;;5030873;28;20029;-54
2024/03/23 03:04:54;;;;;;;7.35;2.45;;;6.10;99.90;;;;;;5030468;28;20033;-56
2024/03/23 03:07:20;;;;;;;6.38;1.88;;;6.10;99.90;;;;;;5030707;28;20491;-57
2024/03/23 03:09:46;;;;;;;5.28;1.67;;;6.10;99.90;;;;;;5030487;28;20052;-56
2024/03/23 03:12:11;;;;;;;3.80;1.90;;;6.00;99.90;;;;;;5027959;28;20033;-56
2024/03/23 03:14:37;;;;;;;3.53;1.55;;;6.00;99.90;;;;;;5031445;28;20029;-52
2024/03/23 03:17:03;;;;;;;3.25;1.58;;;5.90;99.90;;;;;;5030123;28;20053;-57
2024/03/23 03:19:28;;;;;;;5.63;1.77;;;5.90;99.90;;;;;;5030285;28;20025;-55
2024/03/23 03:21:54;;;;;;;11.35;2.22;;;5.90;99.90;;;;;;5029545;28;20111;-53
2024/03/23 03:24:19;;;;;;;6.55;1.55;;;5.80;99.90;;;;;;5029405;28;20025;-53
2024/03/23 03:26:45;;;;;;;5.85;1.45;;;5.60;99.90;;;;;;5033850;28;20112;-57
2024/03/23 03:29:11;;;;;;;14.18;1.73;;;5.60;99.90;;;;;;5030359;28;20040;-55
2024/03/23 03:31:37;;;;;;;12.98;2.33;;;5.50;99.90;;;;;;5029199;28;20084;-55
2024/03/23 03:34:03;;;;;;;4.43;1.25;;;5.40;99.90;;;;;;5029301;28;20022;-54
2024/03/23 03:36:28;;;;;;;2.92;0.95;;;5.40;99.90;;;;;;5027400;28;20853;-56
2024/03/23 03:38:54;;;;;;;13.73;1.30;;;5.30;99.90;;;;;;5030110;28;20521;-56
2024/03/23 03:41:20;;;;;;;13.52;2.28;;;5.20;99.90;;;;;;5029982;28;20037;-56
2024/03/23 03:43:45;;;;;;;9.63;1.50;;;5.20;99.90;;;;;;5030812;28;20077;-55
2024/03/23 03:46:11;;;;;;;10.77;1.73;;;5.10;99.90;;;;;;5028596;28;20075;-55
2024/03/23 03:48:37;;;;;;;18.65;2.35;;;5.10;99.90;;;;;;5029692;28;20033;-53
2024/03/23 03:51:03;;;;;;;11.30;1.50;;;5.10;99.90;;;;;;5007787;28;20053;-55
2024/03/23 03:53:29;;;;;;;12.70;1.50;;;5.10;99.90;;;;;;5025371;28;20060;-54
2024/03/23 03:55:54;;;;;;;6.47;2.40;;;5.10;99.90;;;;;;5028862;28;20057;-57
2024/03/23 03:58:20;;;;;;;5.90;1.23;;;5.10;99.90;;;;;;5025901;28;20542;-58
2024/03/23 04:00:45;;;;;;;5.22;1.10;;;5.10;99.90;;;;;;5028832;28;20503;-55
2024/03/23 04:03:11;;;;;;;12.13;1.33;;;5.10;99.90;;;;;;5028742;28;20395;-56
2024/03/23 04:05:37;;;;;;;5.22;1.38;;;5.00;99.90;;;;;;5028397;28;20063;-56
2024/03/23 04:08:04;;;;;;;6.68;1.38;;;5.00;99.90;;;;;;5029878;28;20060;-57
2024/03/23 04:10:30;;;;;;;11.20;2.10;;;5.00;99.90;;;;;;5029326;28;20063;-55
2024/03/23 04:12:55;;;;;;;8.43;1.20;;;5.00;99.90;;;;;;5026901;28;20108;-54
2024/03/23 04:15:21;;;;;;;7.93;1.95;;;5.00;99.90;;;;;;5028876;28;20044;-56
2024/03/23 04:17:47;;;;;;;7.45;1.60;;;5.10;99.90;;;;;;5031974;28;20486;-56
2024/03/23 04:20:16;;;;;;;6.25;2.95;;;5.10;99.90;;;;;;5029841;28;20025;-57
2024/03/23 04:22:45;;;;;;;6.65;1.50;;;5.10;99.90;;;;;;5029467;28;20043;-55
2024/03/23 04:25:11;;;;;;;10.27;1.38;;;5.10;99.90;;;;;;5027317;28;20091;-56
2024/03/23 04:27:37;;;;;;;12.07;1.90;;;5.10;99.90;;;;;;5027963;28;20489;-55
2024/03/23 04:30:04;;;;;;;8.18;1.67;;;5.10;99.90;;;;;;5029299;28;20025;-56
2024/03/23 04:32:30;;;;;;;10.27;1.70;;;5.10;99.90;;;;;;5027327;28;20499;-58
2024/03/23 04:34:56;;;;;;;7.90;1.85;;;5.10;99.90;;;;;;5025419;28;20127;-56
2024/03/23 04:37:22;;;;;;;11.43;1.77;;;5.10;99.90;;;;;;5026009;28;20033;-56
2024/03/23 04:39:48;;;;;;;10.82;2.22;;;5.10;99.90;;;;;;5029517;28;20089;-57
2024/03/23 04:42:15;;;;;;;7.95;2.05;;;5.10;99.90;;;;;;5023768;28;20260;-56
2024/03/23 04:44:41;;;;;;;9.10;2.20;;;5.10;99.90;;;;;;5043810;28;20033;-56
2024/03/23 04:47:07;;;;;;;4.80;1.98;;;5.10;99.90;;;;;;5025238;28;20033;-56
2024/03/23 04:49:33;;;;;;;15.63;2.55;;;5.00;99.90;;;;;;5027184;28;20025;-57
2024/03/23 04:51:58;;;;;;;15.20;2.63;;;5.00;99.90;;;;;;5013371;28;20498;-57
2024/03/23 04:54:24;;;;;;;16.08;2.40;;;5.00;99.90;;;;;;5020912;28;20068;-56
2024/03/23 04:56:49;;;;;;;9.57;2.13;;;5.00;99.90;;;;;;5024964;28;20022;-56
2024/03/23 04:59:15;;;;;;;9.77;2.22;;;5.00;99.90;;;;;;5024570;28;20033;-58
2024/03/23 05:01:42;;;;;;;6.05;2.00;;;5.10;99.90;;;;;;5027436;28;20025;-55
2024/03/23 05:04:07;;;;;;;11.65;2.65;;;5.10;99.90;;;;;;5028497;28;20017;-55
2024/03/23 05:06:34;;;;;;;20.67;3.40;;;5.10;99.90;;;;;;5028501;28;20071;-56
2024/03/23 05:09:01;;;;;;;18.92;3.55;;;5.20;99.90;;;;;;5032897;28;20021;-55
2024/03/23 05:11:27;;;;;;;14.27;3.67;;;5.20;99.90;;;;;;5024518;28;20083;-55
2024/03/23 05:13:53;;;;;;;21.45;3.67;;;5.20;99.90;;;;;;5030980;28;20104;-55
2024/03/23 05:16:18;;;;;;;12.68;3.65;;;5.20;99.90;;;;;;5031684;28;20032;-56
2024/03/23 05:18:44;;;;;;;10.48;3.53;;;5.20;99.90;;;;;;5032671;28;20021;-58
2024/03/23 05:21:10;;;;;;;23.80;4.85;;;5.30;99.90;;;;;;5032212;28;20124;-55
2024/03/23 05:23:35;;;;;;;11.27;3.65;;;5.20;99.90;;;;;;5031183;28;20056;-59
2024/03/23 05:26:00;;;;;;;13.60;4.50;;;5.20;99.90;;;;;;5033373;28;20026;-56
2024/03/23 05:28:26;;;;;;;16.60;4.45;;;5.20;99.90;;;;;;5031154;28;20042;-55
2024/03/23 05:30:55;;;;;;;10.48;4.07;;;5.20;99.90;;;;;;5032030;28;20036;-56
2024/03/23 05:33:21;;;;;;;11.80;3.92;;;5.20;99.90;;;;;;5030543;28;20049;-56
2024/03/23 05:35:55;;;;;;;12.38;3.58;;;5.20;99.90;;;;;;5028935;28;20498;-56
2024/03/23 05:38:21;;;;;;;11.32;3.70;;;5.20;99.90;;;;;;5030454;28;20037;-57
2024/03/23 05:40:57;;;;;;;9.10;3.80;;;5.20;99.90;;;;;;5031347;28;20033;-54
2024/03/23 05:43:22;;;;;;;13.23;3.75;;;5.20;99.90;;;;;;5029573;28;20029;-56
2024/03/23 05:45:58;;;;;;;12.48;3.67;;;5.20;99.90;;;;;;5031646;28;20031;-54
2024/03/23 05:48:23;;;;;;;14.55;4.63;;;5.20;99.90;;;;;;5031236;28;20634;-56
2024/03/23 05:50:50;;;;;;;9.20;3.40;;;5.20;99.90;;;;;;5028174;28;20104;-53
2024/03/23 05:53:16;;;;;;;12.80;3.60;;;5.30;99.90;;;;;;5015783;28;20088;-58
2024/03/23 05:55:42;;;;;;;13.82;4.93;;;5.30;99.90;;;;;;5030360;28;20144;-57
2024/03/23 05:58:08;;;;;;;17.10;3.85;;;5.30;99.90;;;;;;5032606;28;20427;-56
2024/03/23 06:00:34;;;;;;;10.27;2.90;;;5.40;99.90;;;;;;5028324;28;20105;-56
2024/03/23 06:03:00;;;;;;;11.10;3.28;;;5.30;99.90;;;;;;5030837;28;20712;-56
2024/03/23 06:05:25;;;;;;;15.10;3.13;;;5.40;99.90;;;;;;5031521;28;20093;-54
2024/03/23 06:07:51;;;;;;;17.15;4.00;;;5.40;99.90;;;;;;5031590;28;20022;-57
2024/03/23 06:10:17;;;;;;;16.63;3.10;;;5.30;99.90;;;;;;5030199;28;20378;-59
2024/03/23 06:12:42;;;;;;;10.95;3.13;;;5.40;99.90;;;;;;5030498;28;20466;-55
2024/03/23 06:15:10;;;;;;;11.60;2.63;;;5.40;99.90;;;;;;5035667;28;20029;-55
2024/03/23 06:17:39;;;;;;;20.80;3.85;;;5.40;99.90;;;;;;5032422;28;20067;-56
2024/03/23 06:20:08;;;;;;;12.05;3.15;;;5.40;99.90;;;;;;5026149;28;20561;-58
2024/03/23 06:22:34;;;;;;;15.68;3.50;;;5.40;99.90;;;;;;5025926;28;20442;-56
2024/03/23 06:25:00;;;;;;;14.07;3.78;;;5.40;99.90;;;;;;5030722;28;20034;-53
2024/03/23 06:27:25;;;;;;;9.20;3.17;;;5.50;99.90;;;;;;5030418;28;20053;-55
2024/03/23 06:29:51;;;;;;;13.23;4.53;;;5.50;99.90;;;;;;5030799;28;20062;-56
2024/03/23 06:32:17;;;;;;;18.05;3.45;;;5.50;99.90;;;;;;5031278;28;20047;-57
2024/03/23 06:34:42;;;;;;;16.10;3.10;;;5.50;99.90;;;;;;5029493;28;20539;-53
2024/03/23 06:37:09;;;;;;;14.27;4.35;;;5.50;99.90;;;;;;5029763;28;20025;-56
2024/03/23 06:39:38;;;;;;;12.77;3.40;;;5.60;99.90;;;;;;5030576;28;20487;-53
2024/03/23 06:42:04;;;;;;;11.65;4.40;;;5.60;99.90;;;;;;5028056;28;20090;-57
2024/03/23 06:44:30;;;;;;;10.85;2.90;;;5.70;99.90;;;;;;5029910;28;20558;-58
2024/03/23 06:46:58;;;;;;;8.50;3.08;;;5.70;99.90;;;;;;5030640;28;20127;-58
2024/03/23 06:49:24;;;;;;;15.45;3.00;;;5.70;99.90;;;;;;5037875;22;20472;-57
2024/03/23 06:51:50;;;;;;;21.98;2.53;;;5.70;99.90;;;;;;5029448;28;20061;-57
2024/03/23 06:54:20;;;;;;;12.95;2.95;;;5.80;99.90;;;;;;5005009;28;20045;-58
2024/03/23 06:56:45;;;;;;;9.77;3.35;;;5.80;99.90;;;;;;5020352;28;20116;-56
2024/03/23 06:59:11;;;;;;;10.85;3.10;;;5.90;99.90;;;;;;5019721;28;20443;-57
2024/03/23 07:01:37;;;;;;;18.55;3.03;;;6.10;99.90;;;;;;5002326;28;20073;-57
2024/03/23 07:04:03;;;;;;;15.63;4.30;;;6.20;99.90;;;;;;5001365;28;20030;-58
2024/03/23 07:06:32;;;;;;;18.45;3.65;;;6.30;99.90;;;;;;5005184;28;20057;-58
2024/03/23 07:08:58;;;;;;;20.27;3.42;;;6.30;99.90;;;;;;5007477;28;20021;-55
2024/03/23 07:11:24;;;;;;;14.82;3.45;;;6.40;99.90;;;;;;5009863;28;20034;-58
2024/03/23 07:13:50;;;;;;;13.30;4.00;;;6.90;99.90;;;;;;5009448;28;20029;-58
2024/03/23 07:16:17;;;;;;;9.40;2.88;;;7.30;99.90;;;;;;4999197;28;20395;-58
2024/03/23 07:18:43;;;;;;;11.90;2.90;;;7.60;99.90;;;;;;5003627;28;20019;-55
2024/03/23 07:21:08;;;;;;;11.00;2.97;;;8.00;99.90;;;;;;5010747;28;20036;-53
2024/03/23 07:23:34;;;;;;;14.55;2.92;;;8.20;99.90;;;;;;5008581;28;20042;-54
2024/03/23 07:26:04;;;;;;;22.00;3.33;;;8.00;99.90;;;;;;5007781;28;20030;-55
2024/03/23 07:28:34;;;;;;;11.25;2.72;;;8.00;99.90;;;;;;5010325;28;20025;-53
2024/03/23 07:31:08;;;;;;;10.80;2.55;;;8.30;99.90;;;;;;5010415;28;20072;-52
2024/03/23 07:33:35;;;;;;;11.63;3.03;;;8.20;99.90;;;;;;5007832;28;20030;-54
2024/03/23 07:36:02;;;;;;;18.33;3.83;;;8.20;99.90;;;;;;5009008;28;20029;-53
2024/03/23 07:38:28;;;;;;;17.23;3.05;;;8.30;99.90;;;;;;5010415;28;20032;-55
2024/03/23 07:41:06;;;;;;;9.48;3.20;;;8.00;99.90;;;;;;5008620;28;20395;-55
2024/03/23 07:43:31;;;;;;;10.88;2.40;;;8.10;99.90;;;;;;5005952;28;20118;-57
2024/03/23 07:45:57;;;;;;;13.23;2.55;;;8.10;99.90;;;;;;5008875;28;20450;-56
2024/03/23 07:48:23;;;;;;;10.43;2.72;;;8.10;99.90;;;;;;5007374;28;20026;-55
2024/03/23 07:51:02;;;;;;;13.90;3.22;;;8.20;99.90;;;;;;5007314;28;20033;-55
2024/03/23 07:53:28;;;;;;;15.07;3.70;;;8.30;99.90;;;;;;4987225;28;20046;-55
2024/03/23 07:55:56;;;;;;;12.98;3.47;;;8.60;99.90;;;;;;5009184;28;20026;-52
2024/03/23 07:58:22;;;;;;;11.93;2.67;;;8.60;99.90;;;;;;5004990;28;20614;-57
2024/03/23 08:00:47;;;;;;;10.38;2.67;;;9.00;99.90;;;;;;5007353;28;20029;-53
2024/03/23 08:03:13;;;;;;;15.35;3.30;;;9.60;99.90;;;;;;5005130;28;20038;-54
2024/03/23 08:05:38;;;;;;;16.65;3.00;;;10.20;99.90;;;;;;5006597;28;20030;-56
2024/03/23 08:08:04;;;;;;;11.38;3.53;;;10.70;99.90;;;;;;5007254;28;20057;-57
2024/03/23 08:10:29;;;;;;;13.32;2.83;;;10.90;99.90;;;;;;5008141;28;20048;-56
2024/03/23 08:12:55;;;;;;;9.98;2.92;;;11.40;99.90;;;;;;5009772;28;20045;-54
2024/03/23 08:15:20;;;;;;;12.27;3.53;;;11.30;99.90;;;;;;5002165;28;20028;-57
2024/03/23 08:17:46;;;;;;;18.17;4.10;;;10.80;99.90;;;;;;5003183;28;20476;-56
2024/03/23 08:20:12;;;;;;;12.38;4.57;;;10.50;99.90;;;;;;5002110;28;20033;-57
2024/03/23 08:22:37;;;;;;;16.17;3.67;;;10.30;99.90;;;;;;5006034;28;20034;-54
2024/03/23 08:25:03;;;;;;;13.07;3.25;;;10.00;99.90;;;;;;5006066;28;20029;-56
2024/03/23 08:27:29;;;;;;;15.65;3.28;;;10.10;99.90;;;;;;5002601;28;20407;-55
2024/03/23 08:29:54;;;;;;;12.55;3.45;;;9.90;99.90;;;;;;5005430;28;20116;-55
2024/03/23 08:32:20;;;;;;;12.70;3.70;;;9.70;99.90;;;;;;5003873;28;20499;-55
2024/03/23 08:34:45;;;;;;;17.42;3.35;;;9.70;99.90;;;;;;5008217;28;21400;-57
2024/03/23 08:37:11;;;;;;;12.10;3.45;;;10.20;99.90;;;;;;5007752;28;20048;-57
2024/03/23 08:39:36;;;;;;;13.02;3.97;;;10.80;99.90;;;;;;5010100;28;20022;-56
2024/03/23 08:42:02;;;;;;;11.23;3.30;;;11.50;99.90;;;;;;5008924;28;20117;-56
2024/03/23 08:44:27;;;;;;;10.95;3.13;;;11.80;99.90;;;;;;5008612;28;20090;-57
2024/03/23 08:46:56;;;;;;;10.65;3.60;;;12.30;99.90;;;;;;5007842;28;20037;-56
2024/03/23 08:49:21;;;;;;;8.80;2.78;;;12.50;99.90;;;;;;5011643;28;20041;-57
2024/03/23 08:51:47;;;;;;;10.77;3.45;;;12.40;99.90;;;;;;5010095;28;20029;-56
2024/03/23 08:54:12;;;;;;;12.57;3.20;;;12.00;99.90;;;;;;4991393;28;20053;-58
2024/03/23 08:56:38;;;;;;;6.78;2.10;;;11.60;99.90;;;;;;5011325;28;20037;-56
2024/03/23 08:59:04;;;;;;;10.13;3.08;;;11.00;99.90;;;;;;5007872;28;20487;-57
2024/03/23 09:01:30;;;;;;;9.63;2.72;;;10.50;99.90;;;;;;5006623;28;20058;-56
2024/03/23 09:03:55;;;;;;;6.72;2.30;;;10.40;99.90;;;;;;5007006;28;20502;-57
2024/03/23 09:06:21;;;;;;;11.55;2.85;;;11.00;99.90;;;;;;5004900;28;20030;-53
2024/03/23 09:08:46;;;;;;;10.65;2.60;;;11.40;99.90;;;;;;5007335;28;20113;-57
2024/03/23 09:11:13;;;;;;;8.35;2.65;;;11.10;99.90;;;;;;5011719;28;20080;-58
2024/03/23 09:13:39;;;;;;;8.63;2.58;;;11.10;99.90;;;;;;5013002;28;20196;-55
2024/03/23 09:16:06;;;;;;;11.10;2.55;;;10.80;99.90;;;;;;5012683;28;20061;-57
2024/03/23 09:18:33;;;;;;;12.32;2.95;;;10.40;99.90;;;;;;5010112;28;20034;-57
2024/03/23 09:20:59;;;;;;;8.45;4.10;;;10.10;99.90;;;;;;5013094;28;20036;-53
2024/03/23 09:23:24;;;;;;;16.30;3.28;;;9.90;99.90;;;;;;5012198;28;20112;-57
2024/03/23 09:25:50;;;;;;;12.90;3.13;;;10.20;99.90;;;;;;5011204;28;20064;-56
2024/03/23 09:28:15;;;;;;;9.75;3.30;;;10.70;99.90;;;;;;5011744;28;20030;-56
2024/03/23 09:30:44;;;;;;;15.40;3.85;;;11.10;99.90;;;;;;5012860;28;20092;-56
2024/03/23 09:33:10;;;;;;;11.77;3.00;;;11.20;99.90;;;;;;5007553;28;20029;-57
2024/03/23 09:35:39;;;;;;;8.40;3.28;;;11.30;99.90;;;;;;5017442;28;20412;-58
2024/03/23 09:38:07;;;;;;;7.82;2.85;;;11.00;99.90;;;;;;5011998;28;20799;-58
2024/03/23 09:40:33;;;;;;;10.45;4.03;;;11.10;99.90;;;;;;5005018;28;20113;-55
2024/03/23 09:42:58;;;;;;;7.55;2.90;;;10.60;99.90;;;;;;5009878;28;20117;-54
2024/03/23 09:45:28;;;;;;;6.88;2.85;;;10.30;99.90;;;;;;5007619;28;20046;-58
2024/03/23 09:47:55;;;;;;;13.40;2.72;;;10.00;99.90;;;;;;5010792;28;20087;-55
2024/03/23 09:50:21;;;;;;;9.70;3.75;;;9.60;99.90;;;;;;5006587;28;20202;-55
2024/03/23 09:52:48;;;;;;;13.57;3.17;;;9.20;99.90;;;;;;4991723;27;20435;-56
2024/03/23 09:55:14;;;;;;;10.82;3.30;;;9.00;99.90;;;;;;5005840;28;20088;-55
2024/03/23 09:57:42;;;;;;;16.73;4.30;;;9.00;99.90;;;;;;5006217;28;20076;-55
2024/03/23 10:00:09;;;;;;;10.88;3.17;;;8.80;99.90;;;;;;5005351;28;20542;-53
2024/03/23 10:02:35;;;;;;;12.85;4.40;;;8.90;99.90;;;;;;5005989;28;20037;-56
2024/03/23 10:05:01;;;;;;;10.43;2.97;;;8.90;99.90;;;;;;5009915;28;20037;-58
2024/03/23 10:07:28;;;;;;;10.07;2.15;;;8.80;99.90;;;;;;5010329;28;20037;-53
2024/03/23 10:09:54;;;;;;;12.75;2.63;;;8.80;99.90;;;;;;5005627;28;20031;-56
2024/03/23 10:12:20;;;;;;;6.43;1.65;;;9.00;99.90;;;;;;5003762;28;20034;-53
2024/03/23 10:14:46;;;;;;;18.02;3.10;;;9.20;99.90;;;;;;5008765;28;20041;-55
2024/03/23 10:17:15;;;;;;;9.23;2.08;;;9.90;99.90;;;;;;5005995;28;20037;-55
2024/03/23 10:19:49;;;;;;;8.85;2.47;;;10.60;99.90;;;;;;5007145;28;20038;-56
2024/03/23 10:22:21;;;;;;;8.02;2.20;;;11.60;99.90;;;;;;5008389;28;20065;-55
2024/03/23 10:24:48;;;;;;;12.75;3.10;;;11.90;99.90;;;;;;5008494;28;20026;-58
2024/03/23 10:27:18;;;;;;;17.83;3.58;;;12.20;99.90;;;;;;5004492;28;20022;-56
2024/03/23 10:30:07;;;;;;;7.40;2.97;;;12.10;99.90;;;;;;5006509;28;20026;-56
2024/03/23 10:32:32;;;;;;;9.32;2.50;;;11.70;99.90;;;;;;5008409;28;20064;-58
2024/03/23 10:35:18;;;;;;;11.55;2.53;;;11.70;99.90;;;;;;5008394;28;20096;-57
2024/03/23 10:37:44;;;;;;;8.23;2.05;;;12.00;99.90;;;;;;5002993;28;20037;-57
2024/03/23 10:40:12;;;;;;;5.53;1.40;;;12.10;99.90;;;;;;5005044;28;20404;-54
2024/03/23 10:42:38;;;;;;;9.05;1.75;;;11.90;99.90;;;;;;5002603;28;20396;-55
2024/03/23 10:45:07;;;;;;;10.55;1.52;;;11.30;99.90;;;;;;5004380;28;20033;-55
2024/03/23 10:47:35;;;;;;;5.80;1.25;;;10.70;99.90;;;;;;5008310;28;20080;-57
2024/03/23 10:50:01;;;;;;;8.40;1.20;;;10.60;99.90;;;;;;5004891;28;20044;-57
2024/03/23 10:52:27;;;;;;;7.05;1.63;;;10.10;99.90;;;;;;5008020;28;20041;-56
2024/03/23 10:54:53;;;;;;;8.75;1.80;;;9.80;99.90;;;;;;4991511;28;20058;-55
2024/03/23 10:57:26;;;;;;;6.90;1.65;;;9.40;99.90;;;;;;5003882;28;20102;-53
2024/03/23 10:59:52;;;;;;;6.43;1.17;;;8.90;99.90;;;;;;5007377;28;20025;-56
2024/03/23 11:02:22;;;;;;;10.30;1.63;;;8.20;99.90;;;;;;5003210;28;20492;-57
2024/03/23 11:04:51;;;;;;;2.88;0.95;;;7.70;99.90;;;;;;5003144;28;20037;-60
2024/03/23 11:07:32;;;;;;;3.63;1.92;;;7.40;99.90;;;;;;5010445;28;20112;-53
2024/03/23 11:09:59;;;;;;;5.22;1.10;;;7.20;99.90;;;;;;5003118;28;20520;-55
2024/03/23 11:12:31;;;;;;;5.82;1.30;;;7.00;99.90;;;;;;4999075;28;20030;-53
2024/03/23 11:15:00;;;;;;;5.18;1.65;;;7.10;99.90;;;;;;5006869;28;20025;-57
2024/03/23 11:17:26;;;;;;;2.53;1.23;;;7.10;99.90;;;;;;5001793;28;20034;-57
2024/03/23 11:20:01;;;;;;;27.60;8.98;;;7.30;99.90;;;;;;4999700;28;20026;-56
2024/03/23 11:22:53;;;;;;;3.95;1.55;;;7.60;99.90;;;;;;4999235;28;20034;-54
2024/03/23 11:25:26;;;;;;;8.95;1.88;;;8.30;99.90;;;;;;5004723;28;20049;-55
2024/03/23 11:27:54;;;;;;;5.47;1.55;;;8.90;99.90;;;;;;5009558;28;20097;-53
2024/03/23 11:30:28;;;;;;;11.55;1.85;;;9.40;99.90;;;;;;5010640;28;20029;-55
2024/03/23 11:32:57;;;;;;;6.15;1.77;;;10.00;99.90;;;;;;5008154;28;20034;-51
2024/03/23 11:35:28;;;;;;;4.20;1.48;;;10.30;99.90;;;;;;5010772;28;20465;-54
2024/03/23 11:38:17;;;;;;;7.90;2.08;;;11.10;99.90;;;;;;5010121;28;20029;-54
2024/03/23 11:40:45;;;;;;;6.78;1.17;;;11.30;99.90;;;;;;5009718;28;20092;-55
2024/03/23 11:43:13;;;;;;;4.97;1.25;;;11.70;99.90;;;;;;5010096;28;20040;-55
2024/03/23 11:45:43;;;;;;;6.40;1.13;;;11.60;99.90;;;;;;5009925;28;20792;-56
2024/03/23 11:48:12;;;;;;;8.43;1.50;;;11.10;99.90;;;;;;5009072;28;20052;-56
2024/03/23 11:50:43;;;;;;;9.70;1.23;;;10.80;99.90;;;;;;5011617;28;20038;-57
2024/03/23 11:53:09;;;;;;;8.00;1.70;;;10.20;99.90;;;;;;5005599;28;20029;-54
2024/03/23 11:55:57;;;;;;;3.13;1.00;;;9.70;99.90;;;;;;4995624;28;20046;-54
2024/03/23 11:58:26;;;;;;;4.53;1.00;;;9.00;99.90;;;;;;5007199;28;20484;-56
2024/03/23 12:00:57;;;;;;;7.25;1.15;;;8.20;99.90;;;;;;5005842;28;20061;-57
2024/03/23 12:03:25;;;;;;;3.97;0.73;;;7.20;99.90;;;;;;5012570;28;20045;-55
2024/03/23 12:05:55;;;;;;;6.93;1.38;;;6.60;99.90;;;;;;5006522;28;20029;-56
2024/03/23 12:08:28;;;;;;;3.97;1.15;;;6.30;99.90;;;;;;5015711;28;20033;-57
2024/03/23 12:11:04;;;;;;;2.92;1.35;;;6.00;99.90;;;;;;5008731;28;20455;-56
2024/03/23 12:13:30;;;;;;;1.55;0.70;;;5.80;99.90;;;;;;5005568;28;20068;-54
2024/03/23 12:16:09;;;;;;;15.93;5.00;;;5.80;99.90;;;;;;5006359;28;20081;-57
2024/03/23 12:18:35;;;;;;;25.50;6.10;;;6.00;99.90;;;;;;5008149;28;20084;-55
2024/03/23 12:21:00;;;;;;;11.15;4.25;;;6.00;99.90;;;;;;5006590;28;20030;-57
2024/03/23 12:23:26;;;;;;;5.18;2.33;;;6.00;99.90;;;;;;5009574;28;20500;-56
2024/03/23 12:25:51;;;;;;;32.13;9.32;;;6.10;99.90;;;;;;5009589;28;20701;-57
2024/03/23 12:28:17;;;;;;;17.70;4.63;;;5.90;99.90;;;;;;5009722;28;20038;-56
2024/03/23 12:30:42;;;;;;;9.68;2.63;;;5.80;99.90;;;;;;5008982;28;20030;-55
2024/03/23 12:33:08;;;;;;;6.88;1.23;;;5.60;99.90;;;;;;5012415;28;20026;-56
2024/03/23 12:35:34;;;;;;;3.47;0.82;;;5.60;99.90;;;;;;5011502;28;20034;-55
2024/03/23 12:38:00;;;;;;;2.47;0.82;;;5.60;99.90;;;;;;5009614;28;20049;-54
2024/03/23 12:40:29;;;;;;;5.13;0.70;;;5.90;99.90;;;;;;5008124;28;20040;-57
2024/03/23 12:42:56;;;;;;;5.78;1.38;;;6.40;99.90;;;;;;5011357;28;20782;-57
2024/03/23 12:45:22;;;;;;;7.43;1.17;;;6.80;99.90;;;;;;5010790;28;20101;-56
2024/03/23 12:47:47;;;;;;;3.50;1.27;;;7.00;99.90;;;;;;5009343;28;20026;-54